createdAt,value
2022-10-30T00:03:43.091Z,10.90
2022-10-30T00:08:36.635Z,10.90
2022-10-30T00:13:31.337Z,10.90
2022-10-30T00:18:24.533Z,10.60
2022-10-30T00:23:18.160Z,10.60
2022-10-30T00:28:11.437Z,10.60
2022-10-30T00:33:06.754Z,10.60
2022-10-30T00:38:01.598Z,10.60
2022-10-30T00:42:55.311Z,10.70
2022-10-30T00:47:55.060Z,10.60
2022-10-30T00:52:58.370Z,10.50
2022-10-30T00:57:53.202Z,10.40
2022-10-30T01:02:47.051Z,10.50
2022-10-30T01:07:40.383Z,10.60
2022-10-30T01:12:35.154Z,10.80
2022-10-30T01:17:58.748Z,10.80
2022-10-30T01:23:07.276Z,10.80
2022-10-30T01:28:21.032Z,10.50
2022-10-30T01:33:32.599Z,10.60
2022-10-30T01:38:33.088Z,10.80
2022-10-30T01:43:27.728Z,10.80
2022-10-30T01:48:53.704Z,10.80
2022-10-30T01:54:00.110Z,10.80
2022-10-30T01:59:10.748Z,10.80
2022-10-30T02:04:05.167Z,10.90
2022-10-30T02:09:00.888Z,10.90
2022-10-30T02:13:59.851Z,10.90
2022-10-30T02:18:53.069Z,10.80
2022-10-30T02:23:47.696Z,10.70
2022-10-30T02:28:40.951Z,10.40
2022-10-30T02:33:34.231Z,10.40
2022-10-30T02:38:27.450Z,10.40
2022-10-30T02:43:22.079Z,10.40
2022-10-30T02:48:15.357Z,10.50
2022-10-30T02:53:08.572Z,10.60
2022-10-30T02:58:01.779Z,10.60
2022-10-30T03:02:58.213Z,10.30
2022-10-30T03:07:51.533Z,10.30
2022-10-30T03:12:44.960Z,10.40
2022-10-30T03:17:38.403Z,10.40
2022-10-30T03:22:33.075Z,10.40
2022-10-30T03:27:26.254Z,10.50
2022-10-30T03:32:19.732Z,10.50
2022-10-30T03:37:13.019Z,10.50
2022-10-30T03:42:07.888Z,10.60
2022-10-30T03:47:01.188Z,10.60
2022-10-30T03:51:54.464Z,10.60
2022-10-30T03:56:47.747Z,10.70
2022-10-30T04:01:42.476Z,10.70
2022-10-30T04:06:35.764Z,10.70
2022-10-30T04:11:29.009Z,10.70
2022-10-30T04:16:22.218Z,10.60
2022-10-30T04:21:16.812Z,10.70
2022-10-30T04:26:10.085Z,10.70
2022-10-30T04:31:03.311Z,10.60
2022-10-30T04:35:57.146Z,10.70
2022-10-30T04:40:51.783Z,10.80
2022-10-30T04:45:45.318Z,10.90
2022-10-30T04:50:38.951Z,10.90
2022-10-30T04:55:33.006Z,10.90
2022-10-30T05:00:28.709Z,11.00
2022-10-30T05:05:22.824Z,10.90
2022-10-30T05:10:19.253Z,10.90
2022-10-30T05:15:18.932Z,10.90
2022-10-30T05:20:16.409Z,11.00
2022-10-30T05:25:14.407Z,11.00
2022-10-30T05:30:11.824Z,11.00
2022-10-30T05:35:05.975Z,11.00
2022-10-30T05:40:00.613Z,11.10
2022-10-30T05:45:02.295Z,11.10
2022-10-30T05:49:56.015Z,10.90
2022-10-30T05:54:49.258Z,11.00
2022-10-30T05:59:43.901Z,11.00
2022-10-30T06:04:37.141Z,11.00
2022-10-30T06:09:30.439Z,11.00
2022-10-30T06:14:23.665Z,11.00
2022-10-30T06:19:18.806Z,11.00
2022-10-30T06:24:14.874Z,11.00
2022-10-30T06:29:08.358Z,11.00
2022-10-30T06:34:01.838Z,11.10
2022-10-30T06:38:56.563Z,11.10
2022-10-30T06:43:49.881Z,11.10
2022-10-30T06:48:43.239Z,11.20
2022-10-30T06:53:36.532Z,11.10
2022-10-30T06:58:31.182Z,11.10
2022-10-30T07:03:24.437Z,11.10
2022-10-30T07:08:17.698Z,11.10
2022-10-30T07:13:11.022Z,11.20
2022-10-30T07:18:06.365Z,11.10
2022-10-30T07:22:59.817Z,11.10
2022-10-30T07:27:55.427Z,11.10
2022-10-30T07:32:58.167Z,11.00
2022-10-30T07:37:53.040Z,11.10
2022-10-30T07:42:46.241Z,11.10
2022-10-30T07:47:41.566Z,11.10
2022-10-30T07:52:34.902Z,11.20
2022-10-30T07:57:32.639Z,11.30
2022-10-30T08:02:26.012Z,11.40
2022-10-30T08:07:20.731Z,11.30
2022-10-30T08:12:13.949Z,11.40
2022-10-30T08:17:10.665Z,11.40
2022-10-30T08:22:03.881Z,11.50
2022-10-30T08:26:57.127Z,11.60
2022-10-30T08:31:50.705Z,11.50
2022-10-30T08:36:48.492Z,11.50
2022-10-30T08:41:42.749Z,11.60
2022-10-30T08:46:36.039Z,11.70
2022-10-30T08:51:29.314Z,11.70
2022-10-30T08:56:23.940Z,11.80
2022-10-30T09:01:17.309Z,11.90
2022-10-30T09:06:10.654Z,12.00
2022-10-30T09:11:04.316Z,12.00
2022-10-30T09:16:03.802Z,12.00
2022-10-30T09:20:57.102Z,12.10
2022-10-30T09:25:50.360Z,12.20
2022-10-30T09:30:43.590Z,12.20
2022-10-30T09:35:38.249Z,12.20
2022-10-30T09:40:51.680Z,12.20
2022-10-30T09:46:12.869Z,12.20
2022-10-30T09:51:26.599Z,12.20
2022-10-30T09:56:28.626Z,12.40
2022-10-30T10:01:30.134Z,12.30
2022-10-30T10:06:28.370Z,12.40
2022-10-30T10:11:26.781Z,12.60
2022-10-30T10:16:22.329Z,12.60
2022-10-30T10:21:28.361Z,12.60
2022-10-30T10:26:32.062Z,12.60
2022-10-30T10:31:40.985Z,12.60
2022-10-30T10:36:52.474Z,12.70
2022-10-30T10:42:14.450Z,12.80
2022-10-30T10:47:36.145Z,12.90
2022-10-30T10:52:40.463Z,12.80
2022-10-30T10:57:38.482Z,12.70
2022-10-30T11:02:42.249Z,12.80
2022-10-30T11:07:47.487Z,12.80
2022-10-30T11:12:41.090Z,12.80
2022-10-30T11:17:46.605Z,12.80
2022-10-30T11:22:51.331Z,12.90
2022-10-30T11:27:47.710Z,12.90
2022-10-30T11:32:40.975Z,13.00
2022-10-30T11:37:36.988Z,13.00
2022-10-30T11:42:32.160Z,13.10
2022-10-30T11:52:41.826Z,13.30
2022-10-30T11:57:42.997Z,13.40
2022-10-30T12:02:44.833Z,13.50
2022-10-30T12:07:38.118Z,13.60
2022-10-30T12:12:40.735Z,13.70
2022-10-30T12:17:34.028Z,13.70
2022-10-30T12:22:32.443Z,13.80
2022-10-30T12:27:27.430Z,13.80
2022-10-30T12:32:27.515Z,13.90
2022-10-30T12:37:29.485Z,14.10
2022-10-30T12:42:24.978Z,14.20
2022-10-30T12:47:31.083Z,14.30
2022-10-30T12:52:37.014Z,14.40
2022-10-30T12:57:37.193Z,14.60
2022-10-30T13:02:49.158Z,14.60
2022-10-30T13:07:52.896Z,14.60
2022-10-30T13:12:52.450Z,14.60
2022-10-30T13:17:47.062Z,14.60
2022-10-30T13:22:52.036Z,14.60
2022-10-30T13:27:53.423Z,14.60
2022-10-30T13:33:08.534Z,14.60
2022-10-30T13:38:18.093Z,14.70
2022-10-30T13:43:28.273Z,14.70
2022-10-30T13:48:43.337Z,14.80
2022-10-30T13:53:42.721Z,14.70
2022-10-30T13:58:43.554Z,14.50
2022-10-30T14:03:53.505Z,14.40
2022-10-30T14:09:04.678Z,14.30
2022-10-30T14:14:04.672Z,14.20
2022-10-30T14:19:04.053Z,14.10
2022-10-30T14:24:05.788Z,14.10
2022-10-30T14:28:59.038Z,14.10
2022-10-30T14:33:54.703Z,14.00
2022-10-30T14:39:02.271Z,14.00
2022-10-30T14:44:18.677Z,14.00
2022-10-30T14:49:36.619Z,14.00
2022-10-30T14:54:44.717Z,14.00
2022-10-30T14:59:39.492Z,14.00
2022-10-30T15:04:58.224Z,13.90
2022-10-30T15:10:13.183Z,13.90
2022-10-30T15:15:13.715Z,13.80
2022-10-30T15:20:16.995Z,13.70
2022-10-30T15:25:20.498Z,13.60
2022-10-30T15:30:20.988Z,13.60
2022-10-30T15:35:19.231Z,13.50
2022-10-30T15:40:22.114Z,13.40
2022-10-30T15:45:21.456Z,13.40
2022-10-30T15:50:16.923Z,13.30
2022-10-30T15:55:16.245Z,13.30
2022-10-30T16:00:22.897Z,13.20
2022-10-30T16:05:23.971Z,13.10
2022-10-30T16:10:19.345Z,13.10
2022-10-30T16:15:29.079Z,13.10
2022-10-30T16:20:22.652Z,13.00
2022-10-30T16:25:18.709Z,13.00
2022-10-30T16:30:16.428Z,12.90
2022-10-30T16:35:13.214Z,12.90
2022-10-30T16:40:14.713Z,12.90
2022-10-30T16:45:49.782Z,12.90
2022-10-30T16:50:44.664Z,12.90
2022-10-30T16:55:39.111Z,12.80
2022-10-30T17:00:36.871Z,12.80
2022-10-30T17:05:34.311Z,12.80
2022-10-30T17:10:36.779Z,12.80
2022-10-30T17:15:50.938Z,12.80
2022-10-30T17:20:44.748Z,12.80
2022-10-30T17:25:41.646Z,12.80
2022-10-30T17:30:40.856Z,12.80
2022-10-30T17:35:35.901Z,12.80
2022-10-30T17:40:29.448Z,12.80
2022-10-30T17:45:24.084Z,12.80
2022-10-30T17:50:17.480Z,12.80
2022-10-30T17:55:26.675Z,12.80
2022-10-30T18:00:20.201Z,12.80
2022-10-30T18:05:19.931Z,12.70
2022-10-30T18:10:14.303Z,12.60
2022-10-30T18:15:46.434Z,12.60
2022-10-30T18:20:41.111Z,12.60
2022-10-30T18:25:39.909Z,12.50
2022-10-30T18:30:35.502Z,12.50
2022-10-30T18:35:34.009Z,12.50
2022-10-30T18:40:29.155Z,12.30
2022-10-30T18:45:27.021Z,12.30
2022-10-30T18:50:23.395Z,12.30
2022-10-30T18:55:24.929Z,12.30
2022-10-30T19:00:39.805Z,12.10
2022-10-30T19:05:49.107Z,12.10
2022-10-30T19:10:46.859Z,12.00
2022-10-30T19:16:00.484Z,12.20
2022-10-30T19:21:04.599Z,12.10
2022-10-30T19:26:00.658Z,11.80
2022-10-30T19:31:00.899Z,11.80
2022-10-30T19:35:58.122Z,11.90
2022-10-30T19:40:56.469Z,11.70
2022-10-30T19:45:55.410Z,11.80
2022-10-30T19:50:52.913Z,11.70
2022-10-30T19:55:48.989Z,11.70
2022-10-30T20:00:46.646Z,11.80
2022-10-30T20:05:45.855Z,11.80
2022-10-30T20:10:44.199Z,11.80
2022-10-30T20:15:38.595Z,11.80
2022-10-30T20:20:35.730Z,11.80
2022-10-30T20:25:30.043Z,11.90
2022-10-30T20:30:26.791Z,11.90
2022-10-30T20:35:21.883Z,11.70
2022-10-30T20:40:18.378Z,11.50
2022-10-30T20:45:19.532Z,11.40
2022-10-30T20:50:18.714Z,11.40
2022-10-30T20:55:13.949Z,11.50
2022-10-30T21:00:12.703Z,11.60
2022-10-30T21:05:12.049Z,11.60
2022-10-30T21:10:25.390Z,11.50
2022-10-30T21:15:21.763Z,11.40
2022-10-30T21:20:15.039Z,11.10
2022-10-30T21:25:08.945Z,11.10
2022-10-30T21:30:04.265Z,11.20
2022-10-30T21:34:57.586Z,11.00
2022-10-30T21:39:50.900Z,11.00
2022-10-30T21:44:44.261Z,11.10
2022-10-30T21:49:38.902Z,11.20
2022-10-30T21:54:32.177Z,11.20
2022-10-30T21:59:25.481Z,11.20
2022-10-30T22:04:19.654Z,11.30
2022-10-30T22:09:17.831Z,11.30
2022-10-30T22:14:12.206Z,11.10
2022-10-30T22:19:06.860Z,10.60
2022-10-30T22:24:01.429Z,10.50
2022-10-30T22:28:58.101Z,10.60
2022-10-30T22:33:51.728Z,10.70
2022-10-30T22:38:45.728Z,10.80
2022-10-30T22:43:39.228Z,10.90
2022-10-30T22:48:34.195Z,10.90
2022-10-30T22:53:28.061Z,10.80
2022-10-30T22:58:21.762Z,10.90
2022-10-30T23:03:15.228Z,10.80
2022-10-30T23:08:10.051Z,10.70
2022-10-30T23:13:03.302Z,10.60
2022-10-30T23:17:56.698Z,10.60
2022-10-30T23:22:50.067Z,10.70
2022-10-30T23:27:44.645Z,10.70
2022-10-30T23:32:37.891Z,10.80
2022-10-30T23:37:31.143Z,10.70
2022-10-30T23:42:24.358Z,10.70
2022-10-30T23:47:18.983Z,10.70
2022-10-30T23:52:12.275Z,10.60
2022-10-30T23:57:05.810Z,10.50
